Latest Coastal Weather Observations for Esperance

IDW60701

Issued at 3:12 am WST Tuesday 9 February 2016 (issued every 10 minutes, with the page automatically refreshed every 10 minutes)

About coastal observations | Map of coastal stations | Coastal observations for WA | Marine services | Other Formats
Station Details ID: 009789 Name: ESPERANCE Lat: -33.83 Lon: 121.89 Height: 25.0 m
Data from the previous 72 hours. | See also: Recent months at Esperance
Date/Time
WST
Temp

°C
Wind Pressure Rain
since 9am
mm
Weather Cloud Vis
km
Sea
Height
m
Swell
Dir
 
Speed
knots
Gust
knots
hPa Trend Height
m
Period
s
Dir
09/03:00am 17.2 NNE 10 12 1018.5 F 0.0 - - 10 - - - -
09/02:30am 17.1 NNE 9 13 1018.7 - 0.0 - - 10 - - - -
09/02:00am 16.9 NE 6 8 1019.0 - 0.0 - - 10 - - - -
09/01:30am 17.1 NE 7 10 1019.0 - 0.0 - - 10 - - - -
09/01:00am 17.5 NE 8 11 1019.3 - 0.0 - - 10 - - - -
09/12:30am 17.8 NE 7 10 1019.6 - 0.0 - - 10 - - - -
09/12:00am 18.1 NE 8 12 1019.8 S 0.0 - - 10 - - - -
 
Date/Time
WST
Temp

°C
Wind Pressure Rain
since 9am
mm
Weather Cloud Vis
km
Sea
Height
m
Swell
Dir
 
Speed
knots
Gust
knots
hPa Trend Height
m
Period
s
Dir
08/11:30pm 18.4 ENE 7 12 1020.0 - 0.0 - - 10 - - - -
08/11:00pm 18.8 ENE 7 11 1020.1 - 0.0 - - 10 - - - -
08/10:30pm 19.3 ENE 8 11 1020.3 - 0.0 - - 10 - - - -
08/10:00pm 19.9 ENE 7 12 1020.2 - 0.0 - - 10 - - - -
08/09:30pm 20.8 E 9 15 1020.3 - 0.0 - - 10 - - - -
08/09:00pm 21.7 E 9 14 1020.3 R 0.0 - - 10 - - - -
08/08:30pm 21.0 ESE 7 10 1020.0 - 0.0 - - 10 - - - -
08/08:00pm 21.4 ESE 8 11 1019.8 - 0.0 - - 10 - - - -
08/07:30pm 21.6 SE 8 11 1019.6 - 0.0 - - 10 - - - -
08/07:00pm 21.9 SE 11 17 1019.2 - 0.0 - - 10 - - - -
08/06:30pm 22.6 ESE 14 18 1018.8 - 0.0 - - 10 - - - -
08/06:00pm 23.0 ESE 15 20 1018.4 F 0.0 Fine Clear 30 - - - -
08/05:30pm 23.7 SE 14 21 1018.4 - 0.0 - - 10 - - - -
08/05:00pm 23.6 SE 16 22 1018.5 - 0.0 - - 10 - - - -
08/04:30pm 24.2 SE 18 23 1018.7 - 0.0 - - 10 - - - -
08/04:00pm 24.7 SE 17 24 1018.8 - 0.0 - - 10 - - - -
08/03:30pm 25.1 SE 17 25 1019.0 - 0.0 - - 10 - - - -
08/03:00pm 25.5 SE 17 24 1019.2 F 0.0 Fine Clear 30 - - - -
08/02:30pm 25.5 SE 17 24 1019.5 - 0.0 - - 10 - - - -
08/02:00pm 26.4 SE 16 23 1019.8 - 0.0 - - 10 - - - -
08/01:30pm 26.2 SE 15 21 1020.1 - 0.0 - - 10 - - - -
08/01:00pm 25.8 SE 16 21 1020.3 - 0.0 - - 10 - - - -
08/12:30pm 25.9 SE 15 20 1020.4 - 0.0 - - 10 - - - -
08/12:00pm 26.8 SSE 12 15 1020.9 F 0.0 Fine Clear 30 - - - -
08/11:30am 27.7 SE 9 13 1021.1 - 0.0 - - 10 - - - -
08/11:00am 29.8 NNE 7 11 1021.7 - 0.0 - - 10 - - - -
08/10:30am 27.6 ENE 6 11 1022.1 - 0.0 - - 10 - - - -
08/10:00am 27.0 NE 6 10 1022.3 - 0.0 - - 10 - - - -
08/09:30am 25.4 NNE 9 13 1022.5 - 0.0 - - 10 - - - -
08/09:00am 24.8 NNE 9 13 1022.7 F 0.0 Fine Clear 30 - - - -
08/08:30am 22.6 NE 9 13 1022.9 - 0.0 - - 10 - - - -
08/08:00am 21.2 NE 9 13 1023.2 - 0.0 - - 10 - - - -
08/07:30am 20.2 NE 7 10 1023.2 - 0.0 - - 10 - - - -
08/07:00am 18.8 ENE 5 9 1023.1 - 0.0 - - 10 - - - -
08/06:30am 17.9 ENE 5 8 1022.9 - 0.0 - - 10 - - - -
08/06:00am 16.9 ENE 5 7 1022.7 S 0.0 Fine Clear 30 - - - -
08/05:30am 16.1 ENE 5 7 1022.3 - 0.0 - - 10 - - - -
08/05:00am 16.2 ENE 5 8 1022.0 - 0.0 - - 10 - - - -
08/04:30am 16.3 ENE 6 8 1021.9 - 0.0 - - 10 - - - -
08/04:00am 16.6 NE 7 10 1021.7 - 0.0 - - 10 - - - -
08/03:30am 16.6 NE 7 10 1021.6 - 0.0 - - 10 - - - -
08/03:00am 16.7 ENE 6 9 1021.5 S 0.0 - - 10 - - - -
08/02:30am 16.8 E 5 7 1021.5 - 0.0 - - 10 - - - -
08/02:00am 17.0 ENE 5 8 1021.4 - 0.0 - - 10 - - - -
08/01:30am 17.5 ENE 5 7 1021.6 - 0.0 - - 10 - - - -
08/01:00am 17.9 ENE 6 8 1021.7 - 0.0 - - 10 - - - -
08/12:30am 18.1 ENE 6 10 1021.8 - 0.0 - - 10 - - - -
08/12:00am 18.5 ENE 6 9 1022.0 R 0.0 - - 10 - - - -
 
Date/Time
WST
Temp

°C
Wind Pressure Rain
since 9am
mm
Weather Cloud Vis
km
Sea
Height
m
Swell
Dir
 
Speed
knots
Gust
knots
hPa Trend Height
m
Period
s
Dir
07/11:30pm 18.7 ENE 6 11 1022.0 - 0.0 - - 10 - - - -
07/11:00pm 19.1 ENE 7 10 1022.0 - 0.0 - - 10 - - - -
07/10:30pm 19.4 ENE 7 11 1022.1 - 0.0 - - 10 - - - -
07/10:00pm 20.1 ENE 8 12 1022.0 - 0.0 - - 10 - - - -
07/09:30pm 19.9 E 7 11 1022.0 - 0.0 - - 10 - - - -
07/09:00pm 19.6 ESE 6 9 1021.8 R 0.0 - - 10 - - - -
07/08:30pm 20.0 ESE 8 11 1021.5 - 0.0 - - 10 - - - -
07/08:00pm 20.0 E 8 13 1021.2 - 0.0 - - 10 - - - -
07/07:30pm 20.1 ESE 8 13 1020.9 - 0.0 - - 10 - - - -
07/07:00pm 20.4 ESE 12 17 1020.6 - 0.0 - - 10 - - - -
07/06:30pm 21.1 ESE 13 19 1020.2 - 0.0 - - 10 - - - -
07/06:00pm 21.9 ESE 14 20 1020.1 R 0.0 - - 10 - - - -
07/05:30pm 22.4 ESE 14 19 1019.6 - 0.0 - - 10 - - - -
07/05:00pm 23.0 SE 15 19 1019.3 - 0.0 - - 10 - - - -
07/04:30pm 23.2 SE 16 21 1019.2 - 0.0 - - 10 - - - -
07/04:00pm 23.8 SE 16 23 1019.2 - 0.0 - - 10 - - - -
07/03:30pm 23.9 SE 16 22 1019.1 - 0.0 - - 10 - - - -
07/03:00pm 24.2 SE 17 22 1019.2 R 0.0 Fine Clear 30 - - - -
07/02:30pm 23.6 SE 16 22 1019.2 - 0.0 - - 10 - - - -
07/02:00pm 23.5 SE 19 24 1019.5 - 0.0 - - 10 - - - -
07/01:30pm 23.5 SE 17 23 1019.5 - 0.0 - - 10 - - - -
07/01:00pm 23.9 SSE 16 21 1019.6 - 0.0 - - 10 - - - -
07/12:30pm 23.2 SSE 16 21 1019.8 - 0.0 - - 10 - - - -
07/12:00pm 23.8 SSE 13 18 1020.2 F 0.0 Fine Clear 30 - - - -
07/11:30am 23.4 SSE 13 17 1020.6 - 0.0 - - 10 - - - -
07/11:00am 23.4 SSE 12 15 1020.7 - 0.0 - - 10 - - - -
07/10:30am 24.0 SE 10 12 1021.0 - 0.0 - - 10 - - - -
07/10:00am 23.5 SE 9 12 1021.2 - 0.0 - - 10 - - - -
07/09:30am 24.0 E 6 9 1021.4 - 0.0 - - 10 - - - -
07/09:00am 22.3 SE 6 10 1021.4 S 0.0 Fine Clear 30 - - - -
07/08:30am 21.3 ENE 4 7 1021.4 - 0.0 - - 10 - - - -
07/08:00am 20.4 ENE 5 9 1021.5 - 0.0 - - 10 - - - -
07/07:30am 19.5 ENE 5 9 1021.5 - 0.0 - Mostly clear 10 - - - -
07/07:00am 18.2 E 7 9 1021.5 - 0.0 - Mostly clear 10 - - - -
07/06:30am 17.6 E 5 7 1021.2 - 0.0 - Mostly clear 10 - - - -
07/06:00am 16.4 E 5 8 1020.8 R 0.0 Haze Mostly clear 20 - - - -
07/05:30am 15.7 E 5 7 1020.4 - 0.0 - - 10 - - - -
07/05:00am 15.8 E 6 8 1020.0 - 0.0 - - 10 - - - -
07/04:30am 16.0 E 6 8 1019.7 - 0.0 - - 10 - - - -
07/04:00am 16.1 E 5 7 1019.4 - 0.0 - - 10 - - - -
07/03:30am 16.6 E 6 9 1019.1 - 0.0 - - 10 - - - -
07/03:00am 17.4 E 6 8 1019.1 R 0.0 - - 10 - - - -
07/02:30am 17.6 ESE 7 9 1019.0 - 0.0 - - 10 - - - -
07/02:00am 17.3 ESE 6 8 1018.8 - 0.0 - - 10 - - - -
07/01:30am 18.0 ESE 5 7 1018.5 - 0.0 - - 10 - - - -
07/01:00am 18.3 ESE 7 9 1018.7 - 0.0 - - 10 - - - -
07/12:30am 18.5 ESE 5 7 1018.7 - 0.0 - - 10 - - - -
07/12:00am 18.9 ESE 7 8 1019.0 R 0.0 - - 10 - - - -
 
Date/Time
WST
Temp

°C
Wind Pressure Rain
since 9am
mm
Weather Cloud Vis
km
Sea
Height
m
Swell
Dir
 
Speed
knots
Gust
knots
hPa Trend Height
m
Period
s
Dir
06/11:30pm 18.9 SE 6 8 1019.0 - 0.0 - - 10 - - - -
06/11:00pm 19.0 ESE 5 7 1018.9 - 0.0 - - 10 - - - -
06/10:30pm 19.3 SE 6 7 1019.0 - 0.0 - - 10 - - - -
06/10:00pm 19.6 SE 6 9 1019.0 - 0.0 - - 10 - - - -
06/09:30pm 19.9 SE 8 11 1018.9 - 0.0 - - 10 - - - -
06/09:00pm 19.8 SSE 7 9 1018.7 R 0.0 - - 10 - - - -
06/08:30pm 20.0 SSE 7 10 1018.6 - 0.0 - - 10 - - - -
06/08:00pm 20.2 SSE 9 12 1018.3 - 0.0 - - 10 - - - -
06/07:30pm 20.5 SSE 9 11 1018.0 - 0.0 - - 10 - - - -
06/07:00pm 20.9 SSE 8 11 1017.7 - 0.0 - - 10 - - - -
06/06:30pm 21.5 SSE 9 11 1017.3 - 0.0 - - 10 - - - -
06/06:00pm 21.9 SSE 10 13 1016.9 R 0.0 - - 10 - - - -
06/05:30pm 22.1 S 12 16 1016.4 - 0.0 - - 10 - - - -
06/05:00pm 22.3 SSE 12 15 1016.0 - 0.0 - - 10 - - - -
06/04:30pm 22.4 SSE 12 15 1016.1 - 0.0 - - 10 - - - -
06/04:00pm 22.3 SSE 12 17 1016.2 - 0.0 - - 10 - - - -
06/03:30pm 23.0 S 14 18 1016.3 - 0.0 - - 10 - - - -
06/03:00pm 23.2 SSE 13 16 1016.1 R 0.0 Fine Clear 40 - - - -
06/02:30pm 23.8 S 13 16 1016.3 - 0.0 - - 10 - - - -
06/02:00pm 24.9 SSE 11 13 1016.3 - 0.0 - - 10 - - - -
06/01:30pm 26.0 SSE 9 12 1016.4 - 0.0 - - 10 - - - -
06/01:00pm 25.1 S 12 17 1016.6 - 0.0 - - 10 - - - -
06/12:30pm 25.5 S 11 15 1016.5 - 0.0 - - 10 - - - -
06/12:00pm 26.8 S 9 13 1016.6 F 0.0 Fine Clear 40 - - - -
06/11:30am 25.5 SE 11 13 1016.8 - 0.0 - - 10 - - - -
06/11:00am 25.4 SE 8 10 1017.2 - 0.0 - - 10 - - - -
06/10:30am 24.6 SE 9 10 1017.4 - 0.0 - - 10 - - - -
06/10:00am 24.3 SE 7 10 1017.2 - 0.0 - - 10 - - - -
06/09:30am 23.6 SE 7 9 1017.4 - 0.0 - - 10 - - - -
06/09:00am 24.8 WSW 4 7 1017.4 F 0.0 Fine Clear 30 - - - -
06/08:30am 24.1 NNW 4 6 1017.2 - 0.0 - - 10 - - - -
06/08:00am 21.7 N 7 9 1017.2 - 0.0 - - 10 - - - -
06/07:30am 19.6 NNE 6 9 1017.4 - 0.0 - - 10 - - - -
06/07:00am 17.9 N 6 8 1017.4 - 0.0 - - 10 - - - -
06/06:30am 16.6 N 5 7 1017.3 - 0.0 - - 10 - - - -
06/06:00am 15.8 N 4 6 1016.9 R 0.0 Fine Clear 25 - - - -
06/05:30am 15.5 N 5 6 1016.5 - 0.0 - - 10 - - - -
06/05:00am 16.0 N 6 8 1016.4 - 0.0 - - 10 - - - -
06/04:30am 16.2 NNE 5 7 1015.8 - 0.0 - - 10 - - - -
06/04:00am 16.5 NNE 6 9 1015.5 - 0.0 - - 10 - - - -
06/03:30am 16.7 NNE 6 9 1015.4 - 0.0 - - 10 - - - -

Other Formats:

Comma delimited format used in spreadsheet applications
http://www.bom.gov.au/fwo/IDW60701/IDW60701.94638.axf

JavaScript Object Notation format (JSON) in row-major order
http://www.bom.gov.au/fwo/IDW60701/IDW60701.94638.json